Time;durP1;ratioP1;P1;durP2;ratioP2;P2;SDS_P1;SDS_P2;PMS_P1;PMS_P2;Temp;Humidity;BMP_temperature;BMP_pressure;BME280_temperature;BME280_humidity;BME280_pressure;Samples;Min_cycle;Max_cycle;Signal;HPM_P1;HPM_P2
2023/03/03 00:01:00;;;;;;;12.50;9.50;;;;;;;;;;6245459;28;20017;-77
2023/03/03 00:04:00;;;;;;;6.30;5.80;;;;;;;;;;6242781;28;20471;-77
2023/03/03 00:07:00;;;;;;;8.30;7.80;;;;;;;;;;6228034;28;20026;-78
2023/03/03 00:10:01;;;;;;;12.07;11.10;;;;;;;;;;6246223;28;20045;-76
2023/03/03 00:13:01;;;;;;;8.52;4.45;;;;;;;;;;6249006;28;20024;-77
2023/03/03 00:16:24;;;;;;;10.73;9.37;;;;;;;;;;6249880;28;20464;-77
2023/03/03 00:19:24;;;;;;;7.85;6.78;;;;;;;;;;6230750;28;20092;-77
2023/03/03 00:22:29;;;;;;;7.60;6.83;;;;;;;;;;6244982;28;20117;-76
2023/03/03 00:25:30;;;;;;;8.50;7.97;;;;;;;;;;6244223;28;20037;-77
2023/03/03 00:28:38;;;;;;;7.53;6.82;;;;;;;;;;6243937;28;20009;-76
2023/03/03 00:31:38;;;;;;;20.02;10.68;;;;;;;;;;6249637;28;20474;-77
2023/03/03 00:34:40;;;;;;;4.67;4.47;;;;;;;;;;6227965;28;20025;-77
2023/03/03 00:37:41;;;;;;;9.35;8.43;;;;;;;;;;6246438;28;20022;-77
2023/03/03 00:40:41;;;;;;;8.90;7.07;;;;;;;;;;6245538;28;20022;-77
2023/03/03 00:43:42;;;;;;;13.07;4.53;;;;;;;;;;6251359;28;20013;-77
2023/03/03 00:46:42;;;;;;;8.10;7.38;;;;;;;;;;6244717;28;20097;-77
2023/03/03 00:49:43;;;;;;;5.73;5.33;;;;;;;;;;6250689;28;20379;-76
2023/03/03 00:52:49;;;;;;;8.13;7.53;;;;;;;;;;6244559;28;20056;-77
2023/03/03 00:55:50;;;;;;;7.15;5.65;;;;;;;;;;6244267;28;20032;-77
2023/03/03 00:58:50;;;;;;;8.73;8.10;;;;;;;;;;6248218;28;20021;-76
2023/03/03 01:01:52;;;;;;;2.70;2.58;;;;;;;;;;6239604;28;20021;-77
2023/03/03 01:04:55;;;;;;;1.88;1.85;;;;;;;;;;6244947;28;20014;-77
2023/03/03 01:07:55;;;;;;;14.30;8.77;;;;;;;;;;6250153;28;20016;-76
2023/03/03 01:11:02;;;;;;;3.57;3.37;;;;;;;;;;6246352;28;20049;-77
2023/03/03 01:14:02;;;;;;;5.10;4.80;;;;;;;;;;6249787;28;20017;-77
2023/03/03 01:17:02;;;;;;;18.83;9.27;;;;;;;;;;6245551;28;20379;-76
2023/03/03 01:20:03;;;;;;;9.60;9.00;;;;;;;;;;6244113;28;20428;-77
2023/03/03 01:23:03;;;;;;;13.23;10.83;;;;;;;;;;6243693;28;20124;-77
2023/03/03 01:26:04;;;;;;;6.63;6.13;;;;;;;;;;6244016;28;20497;-77
2023/03/03 01:29:05;;;;;;;7.03;6.40;;;;;;;;;;6243665;28;20021;-77
2023/03/03 01:32:05;;;;;;;7.27;6.63;;;;;;;;;;6244748;28;20053;-78
2023/03/03 01:35:05;;;;;;;6.97;6.33;;;;;;;;;;6244504;28;20398;-78
2023/03/03 01:38:05;;;;;;;4.27;3.97;;;;;;;;;;6229656;28;20106;-78
2023/03/03 01:41:06;;;;;;;6.03;5.47;;;;;;;;;;6231929;28;20029;-78
2023/03/03 01:44:13;;;;;;;8.97;8.13;;;;;;;;;;6240873;28;20025;-78
2023/03/03 01:47:20;;;;;;;6.00;5.47;;;;;;;;;;6249607;28;20028;-78
2023/03/03 01:50:39;;;;;;;34.25;6.43;;;;;;;;;;6248778;28;20437;-79
2023/03/03 01:53:45;;;;;;;6.13;5.78;;;;;;;;;;6248659;28;20028;-80
2023/03/03 01:56:45;;;;;;;18.17;12.38;;;;;;;;;;6248948;28;20533;-80
2023/03/03 01:59:47;;;;;;;13.32;11.75;;;;;;;;;;6248913;28;20029;-79
2023/03/03 02:02:47;;;;;;;;;;;;;;;;;;6245847;28;20022;-79
2023/03/03 02:05:49;;;;;;;15.73;10.85;;;;;;;;;;6234974;28;19905;-80
2023/03/03 02:08:49;;;;;;;;;;;;;;;;;;6249423;28;20021;-80
2023/03/03 02:11:51;;;;;;;4.43;4.20;;;;;;;;;;6239500;28;20382;-81
2023/03/03 02:14:51;;;;;;;10.43;9.57;;;;;;;;;;6251776;28;20064;-81
2023/03/03 02:17:53;;;;;;;6.57;5.97;;;;;;;;;;6253518;28;20021;-81
2023/03/03 02:20:53;;;;;;;;;;;;;;;;;;6239666;28;20021;-80
2023/03/03 02:24:05;;;;;;;10.13;9.00;;;;;;;;;;6249223;28;19909;-81
2023/03/03 02:27:05;;;;;;;3.08;2.97;;;;;;;;;;6237049;28;20462;-81
2023/03/03 02:30:20;;;;;;;8.60;8.07;;;;;;;;;;6248788;28;20036;-82
2023/03/03 02:33:20;;;;;;;4.35;4.13;;;;;;;;;;6237639;28;20024;-82
2023/03/03 02:36:22;;;;;;;6.07;5.63;;;;;;;;;;6250734;28;20502;-82
2023/03/03 02:39:22;;;;;;;;;;;;;;;;;;6257256;28;20082;-81
2023/03/03 02:42:25;;;;;;;13.63;6.55;;;;;;;;;;6239425;28;20374;-82
2023/03/03 02:45:27;;;;;;;8.15;7.43;;;;;;;;;;6244487;28;20032;-82
2023/03/03 02:48:28;;;;;;;6.72;5.95;;;;;;;;;;6248286;28;20064;-81
2023/03/03 02:51:29;;;;;;;5.05;4.80;;;;;;;;;;6247242;28;20561;-81
2023/03/03 02:54:29;;;;;;;7.10;3.23;;;;;;;;;;6246623;28;20093;-80
2023/03/03 02:57:30;;;;;;;7.33;6.70;;;;;;;;;;6247553;28;20067;-80
2023/03/03 03:00:31;;;;;;;6.00;5.67;;;;;;;;;;6247440;28;20330;-79
2023/03/03 03:03:31;;;;;;;8.75;7.90;;;;;;;;;;6247076;28;20021;-79
2023/03/03 03:06:31;;;;;;;7.87;7.17;;;;;;;;;;6237312;28;20020;-79
2023/03/03 03:09:31;;;;;;;3.70;3.40;;;;;;;;;;6230666;28;20032;-78
2023/03/03 03:12:32;;;;;;;14.17;10.57;;;;;;;;;;6246676;28;20048;-78
2023/03/03 03:15:33;;;;;;;13.23;11.87;;;;;;;;;;6243328;28;20048;-78
2023/03/03 03:18:34;;;;;;;11.07;10.00;;;;;;;;;;6251716;28;20022;-77
2023/03/03 03:21:34;;;;;;;6.67;6.07;;;;;;;;;;6251604;28;20495;-77
2023/03/03 03:24:34;;;;;;;11.07;7.75;;;;;;;;;;6250152;28;20017;-77
2023/03/03 03:27:34;;;;;;;5.78;5.28;;;;;;;;;;6246733;28;20101;-77
2023/03/03 03:30:34;;;;;;;11.03;10.00;;;;;;;;;;6249787;28;20044;-78
2023/03/03 03:33:35;;;;;;;37.73;16.20;;;;;;;;;;6248045;28;20021;-78
2023/03/03 03:36:36;;;;;;;7.67;7.17;;;;;;;;;;6246366;28;20009;-77
2023/03/03 03:39:37;;;;;;;2.67;2.58;;;;;;;;;;6246661;28;20029;-77
2023/03/03 03:42:38;;;;;;;12.45;10.63;;;;;;;;;;6246407;28;20507;-77
2023/03/03 03:45:41;;;;;;;11.18;10.32;;;;;;;;;;6241680;28;20036;-77
2023/03/03 03:48:41;;;;;;;11.90;10.85;;;;;;;;;;6246109;28;20096;-77
2023/03/03 03:51:41;;;;;;;8.37;7.73;;;;;;;;;;6256476;28;20023;-77
2023/03/03 03:54:43;;;;;;;2.88;2.70;;;;;;;;;;6233106;28;20641;-78
2023/03/03 03:57:43;;;;;;;9.13;6.78;;;;;;;;;;6249976;28;20384;-78
2023/03/03 04:00:44;;;;;;;5.13;4.65;;;;;;;;;;6246418;28;20112;-78
2023/03/03 04:03:44;;;;;;;9.30;8.17;;;;;;;;;;6245712;28;20076;-77
2023/03/03 04:06:46;;;;;;;11.00;10.15;;;;;;;;;;6246090;28;20100;-78
2023/03/03 04:09:46;;;;;;;7.18;6.65;;;;;;;;;;6246319;28;20387;-77
2023/03/03 04:12:46;;;;;;;26.23;13.27;;;;;;;;;;6249898;28;20045;-78
2023/03/03 04:15:48;;;;;;;14.57;13.47;;;;;;;;;;6250942;28;20423;-78
2023/03/03 04:18:48;;;;;;;;;;;;;;;;;;6223201;28;20021;-78
2023/03/03 04:21:48;;;;;;;2.60;2.45;;;;;;;;;;6228893;28;20333;-78
2023/03/03 04:24:48;;;;;;;15.20;10.50;;;;;;;;;;6254647;28;20425;-78
2023/03/03 04:27:49;;;;;;;13.48;12.40;;;;;;;;;;6252466;28;20039;-78
2023/03/03 04:30:50;;;;;;;12.25;11.23;;;;;;;;;;6246121;28;20185;-78
2023/03/03 04:33:50;;;;;;;2.93;2.83;;;;;;;;;;6235292;28;20021;-78
2023/03/03 04:36:50;;;;;;;19.60;10.77;;;;;;;;;;6254865;28;20028;-79
2023/03/03 04:39:51;;;;;;;3.13;3.03;;;;;;;;;;6258956;28;20017;-79
2023/03/03 04:42:51;;;;;;;15.18;6.88;;;;;;;;;;6256569;28;20055;-79
2023/03/03 04:45:51;;;;;;;9.27;7.90;;;;;;;;;;6240264;28;20083;-78
2023/03/03 04:48:51;;;;;;;11.60;10.47;;;;;;;;;;6257537;28;20025;-79
2023/03/03 04:51:52;;;;;;;12.30;9.60;;;;;;;;;;6247766;28;20061;-79
2023/03/03 04:54:52;;;;;;;12.97;6.50;;;;;;;;;;6249927;28;20021;-79
2023/03/03 04:57:52;;;;;;;7.97;6.63;;;;;;;;;;6256654;28;20005;-79
2023/03/03 05:00:53;;;;;;;8.10;7.53;;;;;;;;;;6258684;28;20036;-79
2023/03/03 05:03:53;;;;;;;7.57;6.93;;;;;;;;;;6256983;28;20010;-80
2023/03/03 05:06:55;;;;;;;14.00;9.80;;;;;;;;;;6251128;28;20430;-79
2023/03/03 05:09:55;;;;;;;8.70;7.22;;;;;;;;;;6243224;28;20013;-81
2023/03/03 05:12:55;;;;;;;21.13;12.13;;;;;;;;;;6241324;28;20068;-80
2023/03/03 05:15:56;;;;;;;17.03;11.73;;;;;;;;;;6257986;28;20041;-80
2023/03/03 05:18:56;;;;;;;3.30;3.20;;;;;;;;;;6251933;28;20079;-81
2023/03/03 05:21:59;;;;;;;23.47;8.63;;;;;;;;;;6240334;28;20501;-80
2023/03/03 05:24:59;;;;;;;15.35;9.45;;;;;;;;;;6218193;28;20030;-80
2023/03/03 05:27:59;;;;;;;6.57;6.20;;;;;;;;;;6232237;28;20021;-80
2023/03/03 05:30:59;;;;;;;2.90;2.03;;;;;;;;;;6240773;28;20013;-80
2023/03/03 05:34:00;;;;;;;11.70;10.77;;;;;;;;;;6226924;28;20117;-80
2023/03/03 05:37:00;;;;;;;11.47;5.40;;;;;;;;;;6239903;28;20384;-79
2023/03/03 05:40:00;;;;;;;13.30;12.37;;;;;;;;;;6240663;28;20102;-80
2023/03/03 05:43:00;;;;;;;23.30;14.43;;;;;;;;;;6248656;28;20017;-80
2023/03/03 05:46:01;;;;;;;9.70;8.73;;;;;;;;;;6244059;28;20043;-80
2023/03/03 05:49:01;;;;;;;15.57;14.03;;;;;;;;;;6243897;28;20018;-82
2023/03/03 05:52:01;;;;;;;16.77;15.40;;;;;;;;;;6243521;28;20026;-81
2023/03/03 05:55:01;;;;;;;17.10;15.50;;;;;;;;;;6243905;28;20370;-80
2023/03/03 05:58:03;;;;;;;4.13;3.80;;;;;;;;;;6243323;28;20035;-81
2023/03/03 06:01:03;;;;;;;25.83;12.77;;;;;;;;;;6250883;28;20025;-82
2023/03/03 06:04:04;;;;;;;12.97;6.17;;;;;;;;;;6255527;28;20475;-82
2023/03/03 06:07:05;;;;;;;27.43;12.60;;;;;;;;;;6242307;28;20108;-82
2023/03/03 06:10:05;;;;;;;5.33;4.93;;;;;;;;;;6238091;28;20257;-82
2023/03/03 06:13:11;;;;;;;25.63;13.20;;;;;;;;;;6252511;28;20053;-82
2023/03/03 06:16:12;;;;;;;12.63;7.65;;;;;;;;;;6243891;28;20148;-81
2023/03/03 06:19:13;;;;;;;5.73;5.43;;;;;;;;;;6235299;28;20030;-82
2023/03/03 06:22:14;;;;;;;8.52;7.32;;;;;;;;;;6240487;28;20026;-82
2023/03/03 06:25:14;;;;;;;15.97;10.07;;;;;;;;;;6253321;28;20068;-82
2023/03/03 06:28:15;;;;;;;15.65;12.45;;;;;;;;;;6261780;28;20017;-83
2023/03/03 06:31:15;;;;;;;11.87;10.87;;;;;;;;;;6248866;28;20487;-82
2023/03/03 06:34:16;;;;;;;9.85;9.18;;;;;;;;;;6251497;28;20570;-82
2023/03/03 06:37:17;;;;;;;12.93;11.97;;;;;;;;;;6254264;28;20729;-82
2023/03/03 06:40:17;;;;;;;16.85;14.80;;;;;;;;;;6243666;28;20025;-81
2023/03/03 06:43:18;;;;;;;10.60;9.50;;;;;;;;;;6249468;28;20029;-81
2023/03/03 06:46:18;;;;;;;10.00;9.07;;;;;;;;;;6250884;28;20052;-81
2023/03/03 06:49:19;;;;;;;11.23;7.17;;;;;;;;;;6247736;28;20536;-81
2023/03/03 06:52:23;;;;;;;27.50;7.03;;;;;;;;;;6250598;28;20037;-81
2023/03/03 06:55:23;;;;;;;6.55;5.97;;;;;;;;;;6252277;28;20029;-81
2023/03/03 06:58:26;;;;;;;12.30;8.00;;;;;;;;;;6240009;28;20028;-81
2023/03/03 07:01:29;;;;;;;7.75;6.93;;;;;;;;;;6249112;28;20112;-81
2023/03/03 07:04:32;;;;;;;8.38;5.10;;;;;;;;;;6257305;28;20113;-79
2023/03/03 07:07:32;;;;;;;13.40;9.35;;;;;;;;;;6223548;28;20113;-79
2023/03/03 07:10:32;;;;;;;8.40;7.67;;;;;;;;;;6247818;28;20487;-79
2023/03/03 07:13:33;;;;;;;11.40;10.47;;;;;;;;;;6233348;28;20505;-80
2023/03/03 07:16:33;;;;;;;11.03;10.43;;;;;;;;;;6239053;28;20041;-80
2023/03/03 07:19:34;;;;;;;8.40;7.90;;;;;;;;;;6228919;28;20484;-80
2023/03/03 07:22:34;;;;;;;7.80;7.27;;;;;;;;;;6255395;28;20546;-79
2023/03/03 07:25:35;;;;;;;9.33;8.47;;;;;;;;;;6266878;28;20259;-79
2023/03/03 07:28:39;;;;;;;9.50;8.63;;;;;;;;;;6257131;28;20028;-79
2023/03/03 07:31:44;;;;;;;10.65;8.13;;;;;;;;;;6232710;28;20052;-79
2023/03/03 07:34:48;;;;;;;7.82;7.18;;;;;;;;;;6251452;28;20017;-79
2023/03/03 07:37:48;;;;;;;7.15;6.50;;;;;;;;;;6248383;28;20424;-80
2023/03/03 07:40:50;;;;;;;21.17;15.90;;;;;;;;;;6253075;28;20021;-80
2023/03/03 07:43:53;;;;;;;38.15;14.30;;;;;;;;;;6228755;28;20029;-78
2023/03/03 07:46:53;;;;;;;9.98;9.10;;;;;;;;;;6246480;28;20105;-78
2023/03/03 07:49:56;;;;;;;7.37;6.80;;;;;;;;;;6248141;28;20021;-78
2023/03/03 07:53:00;;;;;;;15.25;13.85;;;;;;;;;;6234530;28;20439;-79
2023/03/03 07:56:00;;;;;;;13.43;9.60;;;;;;;;;;6259086;28;20025;-77
2023/03/03 07:59:06;;;;;;;6.37;5.97;;;;;;;;;;6254552;28;20064;-77
2023/03/03 08:02:16;;;;;;;9.55;7.78;;;;;;;;;;6252718;28;20025;-78
2023/03/03 08:05:19;;;;;;;6.45;6.00;;;;;;;;;;6250510;28;20348;-77
2023/03/03 08:08:35;;;;;;;8.77;8.00;;;;;;;;;;6253079;28;20094;-77
2023/03/03 08:11:42;;;;;;;4.93;4.60;;;;;;;;;;6257727;28;20056;-77
2023/03/03 08:14:43;;;;;;;4.78;4.53;;;;;;;;;;6245399;28;20044;-76
2023/03/03 08:17:44;;;;;;;8.80;6.73;;;;;;;;;;6244807;28;20026;-77
2023/03/03 08:20:57;;;;;;;8.02;7.55;;;;;;;;;;6247191;28;20029;-78
2023/03/03 08:23:57;;;;;;;9.68;8.68;;;;;;;;;;6227349;28;20112;-78
2023/03/03 08:26:58;;;;;;;18.40;6.63;;;;;;;;;;6247712;28;20051;-78
2023/03/03 08:29:59;;;;;;;25.33;17.38;;;;;;;;;;6258915;28;20024;-78
2023/03/03 08:33:00;;;;;;;19.02;14.77;;;;;;;;;;6248088;28;20033;-79
2023/03/03 08:36:00;;;;;;;6.80;6.30;;;;;;;;;;6231338;28;20475;-80
2023/03/03 08:39:00;;;;;;;9.37;6.87;;;;;;;;;;6244953;28;20036;-80
2023/03/03 08:42:00;;;;;;;11.87;10.53;;;;;;;;;;6252470;28;20062;-80
2023/03/03 08:45:01;;;;;;;10.13;9.27;;;;;;;;;;6234895;28;20104;-81
2023/03/03 08:48:04;;;;;;;10.95;9.85;;;;;;;;;;6252780;28;20028;-81
2023/03/03 08:51:05;;;;;;;19.10;13.07;;;;;;;;;;6251837;28;20025;-81
2023/03/03 08:54:06;;;;;;;9.32;8.30;;;;;;;;;;6247543;28;20471;-81
2023/03/03 08:57:06;;;;;;;10.13;6.90;;;;;;;;;;6252034;28;20068;-81
2023/03/03 09:00:08;;;;;;;19.40;7.47;;;;;;;;;;6252240;28;20036;-81
2023/03/03 09:03:08;;;;;;;5.70;5.30;;;;;;;;;;6249988;28;20440;-81
2023/03/03 09:06:10;;;;;;;3.77;3.50;;;;;;;;;;6246973;28;20038;-81
2023/03/03 09:09:10;;;;;;;;;;;;;;;;;;6248814;28;20071;-80
2023/03/03 09:12:15;;;;;;;4.78;4.38;;;;;;;;;;6232204;28;19916;-81
2023/03/03 09:15:15;;;;;;;7.22;6.60;;;;;;;;;;6251527;28;20083;-82
2023/03/03 09:18:21;;;;;;;4.72;4.32;;;;;;;;;;6257338;28;20021;-81
2023/03/03 09:21:25;;;;;;;19.67;9.27;;;;;;;;;;6256577;28;20071;-81
2023/03/03 09:24:27;;;;;;;5.45;4.97;;;;;;;;;;6245320;28;20013;-80
2023/03/03 09:27:28;;;;;;;10.07;9.02;;;;;;;;;;6248423;28;20030;-80
2023/03/03 09:30:34;;;;;;;9.05;7.38;;;;;;;;;;6235976;28;20025;-80
2023/03/03 09:33:45;;;;;;;1.02;1.02;;;;;;;;;;6254950;28;20037;-81
2023/03/03 09:36:45;;;;;;;4.43;4.10;;;;;;;;;;6231408;28;20367;-81
2023/03/03 09:39:48;;;;;;;2.67;2.57;;;;;;;;;;6248823;28;20045;-80
2023/03/03 09:42:59;;;;;;;8.48;4.88;;;;;;;;;;6250921;28;20041;-80
2023/03/03 09:46:18;;;;;;;3.10;2.90;;;;;;;;;;6245495;28;20021;-80
2023/03/03 09:49:34;;;;;;;6.22;5.53;;;;;;;;;;6244287;28;20033;-80
2023/03/03 09:53:09;;;;;;;1.35;1.35;;;;;;;;;;6246957;28;20021;-80
2023/03/03 09:56:23;;;;;;;12.15;5.72;;;;;;;;;;6150772;28;20508;-79
2023/03/03 09:59:33;;;;;;;3.75;3.45;;;;;;;;;;6141451;28;20468;-79
2023/03/03 10:02:37;;;;;;;0.63;0.63;;;;;;;;;;6146143;28;20082;-79
2023/03/03 10:06:00;;;;;;;5.25;4.78;;;;;;;;;;6150987;28;20018;-79
2023/03/03 10:09:02;;;;;;;7.95;5.95;;;;;;;;;;6147217;28;20050;-79
2023/03/03 10:12:15;;;;;;;4.07;3.88;;;;;;;;;;6220132;28;20048;-79
2023/03/03 10:15:21;;;;;;;4.15;3.88;;;;;;;;;;6256673;28;20033;-79
2023/03/03 10:18:24;;;;;;;2.08;1.98;;;;;;;;;;6250274;28;20025;-79
2023/03/03 10:21:44;;;;;;;2.67;2.47;;;;;;;;;;6237920;28;20051;-79
2023/03/03 10:24:44;;;;;;;3.40;3.13;;;;;;;;;;6249115;28;20425;-80
2023/03/03 10:28:03;;;;;;;7.80;4.27;;;;;;;;;;6251033;28;20067;-80
2023/03/03 10:31:03;;;;;;;12.73;2.05;;;;;;;;;;6243899;28;20014;-79
2023/03/03 10:34:22;;;;;;;0.93;0.93;;;;;;;;;;6255302;28;20029;-79
2023/03/03 10:37:37;;;;;;;6.15;3.13;;;;;;;;;;6237638;28;20051;-79
2023/03/03 10:40:45;;;;;;;4.55;4.22;;;;;;;;;;6242044;28;20013;-79
2023/03/03 10:44:24;;;;;;;2.58;2.38;;;;;;;;;;6255394;28;20041;-79
2023/03/03 10:47:24;;;;;;;3.35;3.15;;;;;;;;;;6221146;28;20455;-79
2023/03/03 10:50:26;;;;;;;6.57;5.00;;;;;;;;;;6220836;28;20030;-79
2023/03/03 10:53:28;;;;;;;2.55;2.42;;;;;;;;;;6249213;28;20065;-78
2023/03/03 10:56:47;;;;;;;3.58;3.38;;;;;;;;;;6246170;28;20025;-79
2023/03/03 11:00:23;;;;;;;3.72;3.45;;;;;;;;;;6242336;28;20022;-78
2023/03/03 11:03:26;;;;;;;4.72;4.38;;;;;;;;;;6144522;28;20035;-78
2023/03/03 11:06:45;;;;;;;5.72;5.35;;;;;;;;;;6241849;28;20025;-79
2023/03/03 11:10:01;;;;;;;3.50;3.17;;;;;;;;;;6245741;28;20057;-79
2023/03/03 11:13:22;;;;;;;3.10;2.97;;;;;;;;;;6235031;28;20076;-80
2023/03/03 11:16:43;;;;;;;3.58;2.90;;;;;;;;;;6250928;28;20021;-80
2023/03/03 11:20:06;;;;;;;5.95;5.60;;;;;;;;;;6241282;28;20029;-79
2023/03/03 11:23:17;;;;;;;3.90;3.67;;;;;;;;;;6223156;28;20040;-79
2023/03/03 11:26:23;;;;;;;1.63;1.52;;;;;;;;;;6250982;28;20033;-79
2023/03/03 11:29:47;;;;;;;5.68;5.20;;;;;;;;;;6249719;28;20440;-79
2023/03/03 11:32:47;;;;;;;3.10;2.92;;;;;;;;;;6229843;28;20053;-79
2023/03/03 11:36:00;;;;;;;9.50;6.20;;;;;;;;;;6247261;28;20031;-79
2023/03/03 11:39:02;;;;;;;4.70;4.40;;;;;;;;;;6249422;28;20021;-79
2023/03/03 11:42:28;;;;;;;1.13;1.13;;;;;;;;;;6243015;28;20060;-79
2023/03/03 11:45:32;;;;;;;3.75;3.55;;;;;;;;;;6244489;28;20037;-79
2023/03/03 11:48:41;;;;;;;12.13;4.55;;;;;;;;;;6247699;28;20108;-79
2023/03/03 11:51:50;;;;;;;5.82;4.80;;;;;;;;;;6251272;28;20480;-78
2023/03/03 11:54:59;;;;;;;5.47;5.05;;;;;;;;;;6253391;28;20064;-78
2023/03/03 11:58:06;;;;;;;2.60;2.40;;;;;;;;;;6262956;28;20036;-79
2023/03/03 12:01:08;;;;;;;3.75;3.35;;;;;;;;;;6247524;28;20120;-78
2023/03/03 12:04:12;;;;;;;9.75;5.55;;;;;;;;;;6243874;28;20032;-79
2023/03/03 12:07:22;;;;;;;13.35;7.43;;;;;;;;;;6246309;28;20120;-78
2023/03/03 12:10:44;;;;;;;3.15;2.95;;;;;;;;;;6261785;28;20577;-78
2023/03/03 12:13:51;;;;;;;9.13;6.88;;;;;;;;;;6262207;28;20025;-78
2023/03/03 12:17:09;;;;;;;2.15;2.05;;;;;;;;;;6249510;28;20367;-78
2023/03/03 12:20:28;;;;;;;10.05;3.28;;;;;;;;;;6248349;28;20025;-79
2023/03/03 12:23:31;;;;;;;4.57;4.03;;;;;;;;;;6250510;28;20546;-79
2023/03/03 12:26:41;;;;;;;5.10;3.75;;;;;;;;;;6246930;28;20100;-78
2023/03/03 12:29:50;;;;;;;3.95;3.67;;;;;;;;;;6245797;28;20029;-78
2023/03/03 12:32:59;;;;;;;3.55;3.28;;;;;;;;;;6243055;28;20025;-78
2023/03/03 12:35:59;;;;;;;11.98;5.53;;;;;;;;;;6222418;28;20029;-78
2023/03/03 12:38:59;;;;;;;2.33;2.23;;;;;;;;;;6248836;28;20021;-78
2023/03/03 12:42:05;;;;;;;4.25;3.90;;;;;;;;;;6242967;28;20029;-79
2023/03/03 12:45:24;;;;;;;4.30;4.05;;;;;;;;;;6237634;28;20471;-78
2023/03/03 12:48:43;;;;;;;8.10;7.45;;;;;;;;;;6248372;28;20170;-79
2023/03/03 12:51:49;;;;;;;4.45;4.15;;;;;;;;;;6238686;28;20087;-80
2023/03/03 12:54:52;;;;;;;4.10;3.72;;;;;;;;;;6246434;28;20021;-80
2023/03/03 12:57:55;;;;;;;6.25;4.22;;;;;;;;;;6241789;28;20025;-79
2023/03/03 13:01:04;;;;;;;2.80;2.65;;;;;;;;;;6246684;28;20013;-78
2023/03/03 13:04:16;;;;;;;8.00;5.13;;;;;;;;;;6249796;28;20053;-78
2023/03/03 13:07:27;;;;;;;2.22;2.15;;;;;;;;;;6245100;28;20491;-79
2023/03/03 13:10:56;;;;;;;5.30;4.90;;;;;;;;;;6243366;28;20017;-79
2023/03/03 13:14:03;;;;;;;6.97;6.30;;;;;;;;;;6249745;28;20025;-79
2023/03/03 13:17:21;;;;;;;2.28;2.17;;;;;;;;;;6249142;28;20029;-79
2023/03/03 13:20:21;;;;;;;3.60;3.38;;;;;;;;;;6244045;28;20033;-80
2023/03/03 13:23:42;;;;;;;2.10;2.03;;;;;;;;;;6253714;28;20061;-80
2023/03/03 13:26:51;;;;;;;1.95;1.85;;;;;;;;;;6208302;28;20033;-80
2023/03/03 13:30:13;;;;;;;7.53;5.65;;;;;;;;;;6244925;28;20017;-80
2023/03/03 13:33:19;;;;;;;1.75;1.65;;;;;;;;;;6227382;28;20163;-78
2023/03/03 13:36:21;;;;;;;1.60;1.60;;;;;;;;;;6256505;28;20099;-79
2023/03/03 13:39:21;;;;;;;;;;;;;;;;;;6249565;28;20024;-79
2023/03/03 13:42:32;;;;;;;2.75;2.60;;;;;;;;;;6251597;28;19913;-78
2023/03/03 13:45:48;;;;;;;4.88;4.57;;;;;;;;;;6248978;28;20546;-79
2023/03/03 13:48:58;;;;;;;8.48;7.82;;;;;;;;;;6248981;28;20009;-79
2023/03/03 13:52:04;;;;;;;3.67;3.38;;;;;;;;;;6247865;28;20069;-79
2023/03/03 13:55:05;;;;;;;5.07;4.43;;;;;;;;;;6247334;28;20057;-79
2023/03/03 13:58:26;;;;;;;4.28;4.00;;;;;;;;;;6261929;28;20029;-79
2023/03/03 14:01:31;;;;;;;12.10;3.75;;;;;;;;;;6256313;28;20139;-79
2023/03/03 14:04:38;;;;;;;6.32;3.40;;;;;;;;;;6255572;28;20109;-79
2023/03/03 14:07:44;;;;;;;7.40;5.20;;;;;;;;;;6245504;28;20100;-79
2023/03/03 14:10:50;;;;;;;4.82;4.15;;;;;;;;;;6246179;28;20535;-79
2023/03/03 14:13:57;;;;;;;3.58;3.28;;;;;;;;;;6220098;28;20128;-79
2023/03/03 14:17:01;;;;;;;1.98;1.92;;;;;;;;;;6254220;28;20332;-79
2023/03/03 14:20:01;;;;;;;5.88;4.90;;;;;;;;;;6246827;28;20026;-79
2023/03/03 14:23:06;;;;;;;2.50;2.40;;;;;;;;;;6244249;28;20087;-79
2023/03/03 14:26:09;;;;;;;6.45;2.92;;;;;;;;;;6243532;28;20029;-79
2023/03/03 14:29:24;;;;;;;6.00;3.55;;;;;;;;;;6242623;28;20049;-80
2023/03/03 14:32:26;;;;;;;4.93;4.57;;;;;;;;;;6252354;28;20032;-79
2023/03/03 14:35:32;;;;;;;2.42;2.35;;;;;;;;;;6251622;28;20029;-80
2023/03/03 14:38:32;;;;;;;6.80;6.07;;;;;;;;;;6224944;28;20029;-79
2023/03/03 14:41:38;;;;;;;4.57;4.18;;;;;;;;;;6248064;28;20017;-79
2023/03/03 14:44:44;;;;;;;2.33;2.22;;;;;;;;;;6246942;28;20026;-79
2023/03/03 14:47:46;;;;;;;4.55;3.35;;;;;;;;;;6253971;28;20025;-80
2023/03/03 14:50:49;;;;;;;6.82;4.55;;;;;;;;;;6243727;28;20026;-79
2023/03/03 14:53:50;;;;;;;8.40;4.70;;;;;;;;;;6247020;28;20051;-79
2023/03/03 14:56:58;;;;;;;4.67;4.37;;;;;;;;;;6228443;28;20029;-78
2023/03/03 15:00:09;;;;;;;3.60;3.30;;;;;;;;;;6257311;28;20026;-78
2023/03/03 15:03:12;;;;;;;2.05;1.95;;;;;;;;;;6248950;28;20025;-78
2023/03/03 15:06:25;;;;;;;3.55;3.35;;;;;;;;;;6260898;28;20036;-79
2023/03/03 15:09:44;;;;;;;4.50;4.20;;;;;;;;;;6257409;28;20108;-78
2023/03/03 15:12:44;;;;;;;3.05;2.83;;;;;;;;;;6252125;28;20052;-79
2023/03/03 15:16:04;;;;;;;2.38;2.28;;;;;;;;;;6260359;28;20025;-79
2023/03/03 15:19:18;;;;;;;2.22;2.13;;;;;;;;;;6249696;28;20048;-79
2023/03/03 15:22:24;;;;;;;3.08;2.88;;;;;;;;;;6260458;28;20053;-78
2023/03/03 15:25:33;;;;;;;5.68;5.10;;;;;;;;;;6254789;28;20086;-79
2023/03/03 15:28:33;;;;;;;2.03;1.92;;;;;;;;;;6248370;28;20033;-78
2023/03/03 15:31:36;;;;;;;3.10;2.53;;;;;;;;;;6236839;28;20021;-78
2023/03/03 15:34:47;;;;;;;1.88;1.75;;;;;;;;;;6246348;28;20041;-78
2023/03/03 15:38:12;;;;;;;12.85;5.13;;;;;;;;;;6246639;28;20026;-79
2023/03/03 15:41:26;;;;;;;2.70;2.60;;;;;;;;;;6244999;28;20025;-78
2023/03/03 15:44:30;;;;;;;4.45;4.05;;;;;;;;;;6238955;28;20025;-78
2023/03/03 15:47:41;;;;;;;8.73;4.93;;;;;;;;;;6252314;28;20057;-78
2023/03/03 15:50:51;;;;;;;19.58;12.15;;;;;;;;;;6249927;28;20040;-79
2023/03/03 15:53:51;;;;;;;1.92;1.88;;;;;;;;;;6258610;28;20471;-78
2023/03/03 15:56:56;;;;;;;6.60;6.13;;;;;;;;;;6249649;28;20068;-79
2023/03/03 16:00:02;;;;;;;6.45;6.07;;;;;;;;;;6247319;28;20116;-79
2023/03/03 16:03:33;;;;;;;12.35;3.38;;;;;;;;;;6251226;28;20437;-78
2023/03/03 16:06:46;;;;;;;2.78;2.67;;;;;;;;;;6231039;28;20471;-79
2023/03/03 16:09:46;;;;;;;2.97;2.83;;;;;;;;;;6254641;28;20009;-79
2023/03/03 16:12:59;;;;;;;4.93;4.63;;;;;;;;;;6252814;28;20096;-79
2023/03/03 16:16:12;;;;;;;10.57;5.07;;;;;;;;;;6242385;28;20474;-79
2023/03/03 16:19:15;;;;;;;6.18;5.88;;;;;;;;;;6249424;28;20025;-78
2023/03/03 16:22:27;;;;;;;5.78;4.53;;;;;;;;;;6250375;28;20032;-78
2023/03/03 16:25:37;;;;;;;4.97;4.57;;;;;;;;;;6227442;28;20032;-79
2023/03/03 16:28:40;;;;;;;6.75;6.25;;;;;;;;;;6228955;28;20096;-78
2023/03/03 16:31:44;;;;;;;13.60;12.15;;;;;;;;;;6248169;28;20054;-78
2023/03/03 16:34:53;;;;;;;3.92;3.72;;;;;;;;;;6244729;28;20021;-79
2023/03/03 16:38:05;;;;;;;8.82;8.20;;;;;;;;;;6241974;28;20520;-78
2023/03/03 16:41:05;;;;;;;;;;;;;;;;;;6246458;28;20017;-78
2023/03/03 16:44:08;;;;;;;3.53;3.30;;;;;;;;;;6251266;28;19916;-78
2023/03/03 16:47:25;;;;;;;4.43;4.15;;;;;;;;;;6238064;28;20040;-78
2023/03/03 16:50:38;;;;;;;2.53;2.42;;;;;;;;;;6246808;28;20131;-78
2023/03/03 16:54:14;;;;;;;4.43;3.17;;;;;;;;;;6226906;28;20017;-79
2023/03/03 16:57:33;;;;;;;4.47;4.22;;;;;;;;;;6226547;28;20049;-78
2023/03/03 17:00:39;;;;;;;4.28;3.92;;;;;;;;;;6234921;28;20061;-78
2023/03/03 17:03:48;;;;;;;3.80;2.33;;;;;;;;;;6241673;28;20030;-78
2023/03/03 17:07:19;;;;;;;4.55;4.20;;;;;;;;;;6237812;28;20037;-79
2023/03/03 17:10:26;;;;;;;4.90;4.70;;;;;;;;;;6214157;28;20069;-79
2023/03/03 17:13:32;;;;;;;6.13;4.60;;;;;;;;;;6236863;28;20076;-78
2023/03/03 17:16:43;;;;;;;8.40;7.20;;;;;;;;;;6246521;28;20022;-78
2023/03/03 17:20:04;;;;;;;7.10;5.50;;;;;;;;;;6244557;28;20031;-78
2023/03/03 17:23:28;;;;;;;4.60;4.28;;;;;;;;;;6243873;28;20025;-78
2023/03/03 17:26:34;;;;;;;15.93;7.30;;;;;;;;;;6244167;28;20037;-78
2023/03/03 17:29:43;;;;;;;3.22;2.92;;;;;;;;;;6251561;28;20148;-79
2023/03/03 17:32:46;;;;;;;4.53;3.67;;;;;;;;;;6245885;28;20392;-78
2023/03/03 17:35:50;;;;;;;7.97;6.53;;;;;;;;;;6236354;28;20075;-78
2023/03/03 17:38:59;;;;;;;2.42;2.25;;;;;;;;;;6241395;28;20108;-78
2023/03/03 17:42:05;;;;;;;3.47;3.28;;;;;;;;;;6250924;28;20338;-78
2023/03/03 17:45:13;;;;;;;6.85;6.35;;;;;;;;;;6248325;28;20025;-78
2023/03/03 17:48:44;;;;;;;12.90;5.65;;;;;;;;;;6245570;28;20472;-78
2023/03/03 17:52:07;;;;;;;5.55;3.20;;;;;;;;;;6254129;28;20033;-79
2023/03/03 17:55:13;;;;;;;6.93;6.35;;;;;;;;;;6252100;28;20037;-78
2023/03/03 17:58:28;;;;;;;3.83;3.53;;;;;;;;;;6255650;28;20116;-79
2023/03/03 18:01:35;;;;;;;4.45;4.10;;;;;;;;;;6251354;28;20022;-78
2023/03/03 18:04:53;;;;;;;12.68;4.78;;;;;;;;;;6252006;28;20491;-77
2023/03/03 18:08:12;;;;;;;8.88;6.63;;;;;;;;;;6249992;28;20534;-79
2023/03/03 18:11:24;;;;;;;3.35;3.15;;;;;;;;;;6231058;28;20042;-78
2023/03/03 18:14:32;;;;;;;10.65;8.55;;;;;;;;;;6249495;28;20407;-79
2023/03/03 18:17:34;;;;;;;3.15;3.00;;;;;;;;;;6245490;28;20475;-78
2023/03/03 18:20:43;;;;;;;7.78;7.13;;;;;;;;;;6245020;28;20033;-78
2023/03/03 18:23:48;;;;;;;3.70;3.35;;;;;;;;;;6246193;28;20029;-78
2023/03/03 18:27:16;;;;;;;8.73;7.55;;;;;;;;;;6249800;28;20032;-79
2023/03/03 18:30:17;;;;;;;6.15;5.55;;;;;;;;;;6263908;28;20036;-79